^^
Station Historical Data
Daily Summary for September 18, 2017 Units:  English    Metric   Both
« Previous Day
Next Day »
Daily Weekly Monthly Yearly Custom
  High: Low: Average:
Temperature: 74.7 °F 65.6 °F 68.7 °F
Dew Point: 67.5 °F 63.1 °F 65.3 °F
Humidity: 96% 77% 89%
Wind Speed: 5.0mph 0.0mph 0.3mph
Wind Gust: 8.0mph - -
Wind- - WSW
Pressure: 30.15 in 30.09 in -
Precipitation: 0.00 in    
Historical Graphs
 
 
Tabular Data for September 18, 2017
Time Temperature Dew Point Pressure Wind Wind Speed Wind Gust Humidity Rainfall Rate (Hourly) Conditions
00:00 67.6 °F 66.1 °F 30.14 in Calm   1.0 mph 95% 0.00 in -DZ
00:15 67.8 °F 66.3 °F 30.13 in Calm     95% 0.00 in OVC
00:30 67.8 °F 66.3 °F 30.13 in Calm   1.0 mph 95% 0.00 in OVC
00:45 67.9 °F 66.4 °F 30.13 in Calm     95% 0.00 in OVC
01:00 67.8 °F 66.0 °F 30.13 in Calm     94% 0.00 in OVC
02:15 66.2 °F 64.7 °F 30.13 in Calm   1.0 mph 95% 0.00 in OVC
02:30 66.2 °F 64.7 °F 30.12 in Calm     95% 0.00 in OVC
02:45 65.9 °F 64.4 °F 30.12 in Calm     95% 0.00 in OVC
03:00 65.9 °F 64.4 °F 30.12 in Calm     95% 0.00 in OVC
03:15 66.0 °F 64.5 °F 30.11 in Calm   1.0 mph 95% 0.00 in OVC
03:30 66.2 °F 64.7 °F 30.11 in Calm     95% 0.00 in OVC
03:45 66.4 °F 64.6 °F 30.11 in Calm   1.0 mph 94% 0.00 in OVC
04:00 66.5 °F 64.1 °F 30.11 in Calm   2.0 mph 92% 0.00 in OVC
04:15 66.6 °F 64.2 °F 30.11 in Calm     92% 0.00 in BKN
04:30 66.7 °F 64.3 °F 30.11 in Calm     92% 0.00 in BKN
04:45 66.7 °F 64.0 °F 30.11 in Calm   1.0 mph 91% 0.00 in BKN
05:00 66.7 °F 64.0 °F 30.11 in Calm   3.0 mph 91% 0.00 in BKN
05:15 66.6 °F 63.9 °F 30.11 in Calm   1.0 mph 91% 0.00 in BKN
05:30 66.4 °F 63.7 °F 30.12 in Calm   1.0 mph 91% 0.00 in BKN
05:45 66.3 °F 63.6 °F 30.11 in Calm   2.0 mph 91% 0.00 in BKN
06:00 66.2 °F 63.5 °F 30.11 in Calm   3.0 mph 91% 0.00 in BKN
06:15 66.0 °F 63.3 °F 30.12 in Calm   3.0 mph 91% 0.00 in BKN
06:30 65.9 °F 63.2 °F 30.12 in Calm   1.0 mph 91% 0.00 in BKN
06:45 65.8 °F 63.1 °F 30.13 in Calm   3.0 mph 91% 0.00 in BKN
07:00 65.8 °F 63.4 °F 30.13 in Calm   3.0 mph 92% 0.00 in BKN
07:15 65.7 °F 63.3 °F 30.13 in Calm   2.0 mph 92% 0.00 in OVC
07:30 65.7 °F 63.6 °F 30.14 in Calm   2.0 mph 93% 0.00 in OVC
07:45 65.6 °F 63.5 °F 30.15 in NW 1.0 mph 2.0 mph 93% 0.00 in OVC
08:00 65.7 °F 63.6 °F 30.15 in Calm   1.0 mph 93% 0.00 in OVC
08:15 65.8 °F 63.7 °F 30.15 in Calm   1.0 mph 93% 0.00 in OVC
08:30 65.9 °F 63.5 °F 30.15 in Calm   1.0 mph 92% 0.00 in OVC
08:45 66.0 °F 63.6 °F 30.15 in Calm   3.0 mph 92% 0.00 in OVC
09:00 66.0 °F 63.6 °F 30.15 in Calm   5.0 mph 92% 0.00 in OVC
09:15 66.0 °F 63.6 °F 30.15 in WNW 1.0 mph 3.0 mph 92% 0.00 in CLR
09:30 66.2 °F 64.1 °F 30.15 in Calm   3.0 mph 93% 0.00 in CLR
09:45 66.7 °F 64.3 °F 30.15 in Calm   5.0 mph 92% 0.00 in CLR
10:00 67.7 °F 65.0 °F 30.15 in NW 1.0 mph 4.0 mph 91% 0.00 in CLR
10:15 68.0 °F 64.6 °F 30.14 in WNW 1.0 mph 7.0 mph 89% 0.00 in BKN
10:30 69.1 °F 65.1 °F 30.14 in Calm   4.0 mph 87% 0.00 in BKN
10:45 69.5 °F 65.1 °F 30.14 in NW 1.0 mph 6.0 mph 86% 0.00 in BKN
11:00 69.6 °F 65.2 °F 30.14 in Calm   4.0 mph 86% 0.00 in BKN
11:15 70.0 °F 65.6 °F 30.14 in Calm   4.0 mph 86% 0.00 in BKN
11:30 71.0 °F 65.9 °F 30.14 in Calm   4.0 mph 84% 0.00 in BKN
11:45 71.4 °F 66.0 °F 30.13 in Calm   3.0 mph 83% 0.00 in BKN
12:00 72.0 °F 65.9 °F 30.14 in SSW 1.0 mph 5.0 mph 81% 0.00 in BKN
12:15 71.7 °F 66.3 °F 30.13 in Calm   3.0 mph 83% 0.00 in BKN
12:30 71.9 °F 66.5 °F 30.13 in WNW 1.0 mph 5.0 mph 83% 0.00 in BKN
12:45 72.0 °F 66.6 °F 30.13 in Calm   4.0 mph 83% 0.00 in BKN
13:00 72.7 °F 66.5 °F 30.12 in Calm   5.0 mph 81% 0.00 in BKN
13:15 73.1 °F 66.6 °F 30.12 in NW 2.0 mph 5.0 mph 80% 0.00 in BKN
13:30 73.6 °F 66.6 °F 30.11 in North 5.0 mph 8.0 mph 79% 0.00 in BKN
13:45 74.2 °F 66.9 °F 30.11 in NNE 2.0 mph 8.0 mph 78% 0.00 in BKN
14:00 73.9 °F 66.6 °F 30.11 in Calm   8.0 mph 78% 0.00 in BKN
14:15 74.5 °F 67.2 °F 30.11 in Calm   6.0 mph 78% 0.00 in BKN
14:30 74.2 °F 66.6 °F 30.10 in NNW 3.0 mph 7.0 mph 77% 0.00 in BKN
14:45 74.2 °F 66.9 °F 30.10 in Calm   6.0 mph 78% 0.00 in BKN
15:15 74.7 °F 67.0 °F 30.10 in ENE 1.0 mph 3.0 mph 77% 0.00 in BKN
15:30 74.3 °F 67.0 °F 30.10 in Calm   3.0 mph 78% 0.00 in BKN
16:00 73.5 °F 67.3 °F 30.10 in Calm   6.0 mph 81% 0.00 in BKN
16:15 72.6 °F 67.1 °F 30.10 in SE 1.0 mph 6.0 mph 83% 0.00 in BKN
16:45 72.9 °F 67.5 °F 30.09 in WSW 1.0 mph 3.0 mph 83% 0.00 in BKN
17:00 73.0 °F 67.5 °F 30.09 in WSW 1.0 mph 4.0 mph 83% 0.00 in BKN
17:15 72.4 °F 66.9 °F 30.10 in NNW 1.0 mph 4.0 mph 83% 0.00 in BKN
17:30 72.4 °F 67.3 °F 30.10 in Calm   6.0 mph 84% 0.00 in BKN
17:45 71.8 °F 66.7 °F 30.10 in Calm   6.0 mph 84% 0.00 in BKN
18:00 71.5 °F 66.8 °F 30.10 in Calm   3.0 mph 85% 0.00 in BKN
18:15 71.1 °F 66.7 °F 30.10 in Calm   4.0 mph 86% 0.00 in BKN
18:30 70.9 °F 66.5 °F 30.10 in Calm   2.0 mph 86% 0.00 in BKN
18:45 70.7 °F 66.6 °F 30.10 in Calm   2.0 mph 87% 0.00 in BKN
19:00 70.4 °F 66.7 °F 30.10 in Calm   4.0 mph 88% 0.00 in BKN
19:15 69.8 °F 66.1 °F 30.09 in Calm   1.0 mph 88% 0.00 in BKN
19:30 69.2 °F 65.8 °F 30.10 in Calm   2.0 mph 89% 0.00 in BKN
19:45 69.1 °F 66.0 °F 30.10 in Calm   3.0 mph 90% 0.00 in BKN
20:00 68.8 °F 65.7 °F 30.10 in Calm   1.0 mph 90% 0.00 in BKN
20:15 68.1 °F 65.4 °F 30.11 in Calm   1.0 mph 91% 0.00 in SCT
20:30 67.5 °F 65.1 °F 30.11 in Calm   1.0 mph 92% 0.00 in SCT
20:45 67.0 °F 64.9 °F 30.11 in Calm     93% 0.00 in SCT
21:00 66.6 °F 64.8 °F 30.11 in Calm     94% 0.00 in SCT
21:15 66.1 °F 64.4 °F 30.11 in Calm     94% 0.00 in SCT
21:30 66.0 °F 64.5 °F 30.11 in Calm     95% 0.00 in SCT
21:45 65.9 °F 64.4 °F 30.10 in Calm     95% 0.00 in SCT
22:00 65.9 °F 64.4 °F 30.11 in Calm     95% 0.00 in SCT
22:15 65.9 °F 64.7 °F 30.11 in Calm     96% 0.00 in BKN
22:30 66.6 °F 65.4 °F 30.11 in Calm     96% 0.00 in BKN
22:45 67.1 °F 66.0 °F 30.10 in Calm   2.0 mph 96% 0.00 in BKN
23:00 67.3 °F 65.8 °F 30.10 in NE 1.0 mph 4.0 mph 95% 0.00 in BKN
23:15 67.4 °F 65.6 °F 30.09 in Calm   3.0 mph 94% 0.00 in BKN
23:30 67.5 °F 65.4 °F 30.10 in Calm   2.0 mph 93% 0.00 in BKN
23:45 67.6 °F 65.5 °F 30.09 in Calm   3.0 mph 93% 0.00 in BKN
TarryTown NY Weather
Compliments of Weather Underground - 1.5 mb